createdAt,value
2023-02-08T00:00:46.046Z,85.65
2023-02-08T00:03:13.850Z,85.84
2023-02-08T00:05:41.384Z,86.30
2023-02-08T00:08:09.425Z,86.38
2023-02-08T00:10:37.167Z,86.88
2023-02-08T00:13:04.784Z,87.33
2023-02-08T00:15:32.704Z,86.83
2023-02-08T00:18:01.764Z,87.59
2023-02-08T00:20:29.343Z,87.32
2023-02-08T00:22:57.610Z,86.97
2023-02-08T00:25:25.149Z,86.96
2023-02-08T00:27:52.849Z,86.62
2023-02-08T00:30:20.468Z,86.68
2023-02-08T00:32:48.862Z,87.13
2023-02-08T00:35:17.965Z,87.26
2023-02-08T00:37:45.596Z,87.01
2023-02-08T00:40:13.337Z,88.07
2023-02-08T00:42:40.897Z,88.16
2023-02-08T00:45:10.206Z,87.27
2023-02-08T00:47:37.805Z,87.77
2023-02-08T00:50:06.339Z,88.04
2023-02-08T00:52:35.288Z,87.73
2023-02-08T00:55:02.948Z,86.76
2023-02-08T00:57:30.718Z,87.00
2023-02-08T00:59:58.210Z,87.32
2023-02-08T01:02:25.936Z,87.11
2023-02-08T01:04:53.530Z,87.53
2023-02-08T01:07:21.143Z,87.72
2023-02-08T01:09:50.090Z,87.85
2023-02-08T01:12:17.766Z,87.93
2023-02-08T01:14:45.544Z,88.67
2023-02-08T01:17:13.113Z,88.91
2023-02-08T01:19:42.503Z,89.25
2023-02-08T01:22:10.284Z,88.06
2023-02-08T01:24:37.855Z,88.03
2023-02-08T01:27:06.758Z,88.30
2023-02-08T01:29:34.556Z,88.35
2023-02-08T01:32:02.083Z,88.09
2023-02-08T01:34:30.505Z,89.37
2023-02-08T01:36:58.058Z,88.50
2023-02-08T01:39:25.668Z,88.30
2023-02-08T01:41:53.251Z,88.74
2023-02-08T01:44:58.520Z,89.32
2023-02-08T01:47:27.673Z,88.51
2023-02-08T01:49:55.369Z,88.66
2023-02-08T01:52:26.314Z,88.75
2023-02-08T01:54:58.309Z,88.58
2023-02-08T01:57:26.406Z,87.71
2023-02-08T01:59:57.979Z,88.80
2023-02-08T02:02:27.451Z,88.71
2023-02-08T02:04:56.555Z,88.24
2023-02-08T02:07:29.071Z,88.36
2023-02-08T02:10:00.991Z,88.82
2023-02-08T02:12:30.867Z,88.19
2023-02-08T02:14:59.275Z,88.70
2023-02-08T02:17:28.292Z,88.33
2023-02-08T02:20:04.250Z,87.80
2023-02-08T02:22:59.805Z,88.55
2023-02-08T02:25:59.660Z,87.64
2023-02-08T02:29:18.035Z,87.72
2023-02-08T02:32:12.353Z,88.47
2023-02-08T02:34:50.514Z,88.82
2023-02-08T02:37:31.048Z,88.10
2023-02-08T02:40:08.795Z,88.54
2023-02-08T02:43:05.853Z,88.11
2023-02-08T02:45:37.907Z,87.53
2023-02-08T02:48:13.798Z,87.96
2023-02-08T02:50:46.108Z,88.08
2023-02-08T02:53:19.545Z,87.93
2023-02-08T02:55:53.010Z,88.79
2023-02-08T02:58:23.287Z,88.77
2023-02-08T03:00:55.502Z,88.35
2023-02-08T03:03:27.224Z,88.79
2023-02-08T03:05:59.642Z,88.77
2023-02-08T03:08:44.451Z,88.77
2023-02-08T03:11:21.978Z,88.21
2023-02-08T03:14:02.665Z,89.16
2023-02-08T03:16:37.473Z,88.28
2023-02-08T03:19:12.119Z,88.75
2023-02-08T03:21:44.349Z,89.34
2023-02-08T03:24:23.858Z,89.19
2023-02-08T03:26:58.966Z,89.72
2023-02-08T03:29:37.399Z,89.99
2023-02-08T03:32:10.116Z,90.47
2023-02-08T03:34:46.818Z,90.30
2023-02-08T03:37:19.538Z,90.36
2023-02-08T03:39:49.549Z,90.03
2023-02-08T03:42:22.681Z,90.31
2023-02-08T03:44:53.122Z,90.37
2023-02-08T03:47:24.294Z,90.78
2023-02-08T03:49:56.459Z,90.49
2023-02-08T03:52:25.811Z,91.23
2023-02-08T03:54:58.330Z,90.58
2023-02-08T03:57:29.452Z,90.98
2023-02-08T04:00:01.430Z,89.97
2023-02-08T04:02:34.016Z,90.51
2023-02-08T04:05:03.614Z,91.00
2023-02-08T04:07:31.122Z,90.47
2023-02-08T04:09:58.712Z,90.54
2023-02-08T04:12:26.261Z,91.16
2023-02-08T04:14:53.821Z,90.00
2023-02-08T04:17:21.359Z,90.12
2023-02-08T04:19:48.950Z,90.26
2023-02-08T04:22:17.826Z,90.01
2023-02-08T04:24:45.363Z,90.10
2023-02-08T04:27:12.976Z,90.34
2023-02-08T04:29:41.211Z,90.52
2023-02-08T04:32:11.566Z,90.75
2023-02-08T04:34:39.247Z,90.27
2023-02-08T04:37:07.235Z,90.42
2023-02-08T04:39:36.284Z,90.25
2023-02-08T04:42:03.919Z,88.91
2023-02-08T04:44:32.707Z,88.61
2023-02-08T04:47:00.456Z,89.27
2023-02-08T04:49:28.019Z,89.55
2023-02-08T04:51:55.623Z,89.81
2023-02-08T04:54:23.182Z,89.77
2023-02-08T04:56:52.098Z,89.16
2023-02-08T04:59:19.794Z,89.11
2023-02-08T05:01:47.502Z,88.76
2023-02-08T05:04:15.132Z,88.40
2023-02-08T05:06:42.667Z,88.78
2023-02-08T05:09:10.996Z,88.30
2023-02-08T05:11:38.595Z,89.14
2023-02-08T05:14:07.454Z,89.49
2023-02-08T05:16:34.948Z,89.65
2023-02-08T05:19:02.485Z,90.01
2023-02-08T05:21:30.218Z,88.82
2023-02-08T05:23:57.853Z,89.29
2023-02-08T05:26:25.469Z,89.81
2023-02-08T05:28:53.050Z,90.02
2023-02-08T05:31:24.406Z,90.23
2023-02-08T05:33:52.581Z,89.75
2023-02-08T05:36:21.187Z,90.20
2023-02-08T05:38:48.755Z,90.62
2023-02-08T05:41:16.988Z,90.40
2023-02-08T05:43:44.523Z,90.21
2023-02-08T05:46:12.367Z,89.76
2023-02-08T05:48:41.454Z,89.31
2023-02-08T05:51:09.206Z,88.64
2023-02-08T05:53:37.703Z,88.36
2023-02-08T05:56:05.637Z,88.25
2023-02-08T05:58:34.234Z,88.50
2023-02-08T06:01:02.365Z,88.13
2023-02-08T06:03:30.042Z,88.00
2023-02-08T06:06:01.077Z,87.93
2023-02-08T06:08:28.901Z,88.11
2023-02-08T06:10:56.570Z,88.25
2023-02-08T06:13:24.198Z,88.83
2023-02-08T06:15:51.748Z,88.23
2023-02-08T06:18:19.313Z,88.03
2023-02-08T06:20:46.890Z,88.06
2023-02-08T06:23:15.746Z,87.62
2023-02-08T06:25:43.275Z,87.33
2023-02-08T06:28:11.081Z,100.00
2023-02-08T06:30:39.169Z,100.00
2023-02-08T06:33:07.090Z,96.02
2023-02-08T06:35:34.630Z,93.98
2023-02-08T06:38:02.328Z,92.64
2023-02-08T06:40:31.253Z,90.38
2023-02-08T06:42:58.765Z,89.33
2023-02-08T06:45:26.331Z,89.32
2023-02-08T06:47:53.842Z,95.48
2023-02-08T06:50:24.001Z,93.16
2023-02-08T06:52:51.679Z,90.80
2023-02-08T06:55:19.680Z,90.36
2023-02-08T06:57:48.581Z,88.58
2023-02-08T07:00:16.640Z,88.89
2023-02-08T07:02:44.204Z,88.60
2023-02-08T07:05:11.793Z,87.80
2023-02-08T07:07:39.390Z,87.44
2023-02-08T07:10:07.768Z,87.67
2023-02-08T07:12:36.054Z,87.44
2023-02-08T07:15:05.249Z,86.57
2023-02-08T07:17:32.796Z,87.39
2023-02-08T07:20:00.364Z,88.83
2023-02-08T07:22:27.920Z,88.55
2023-02-08T07:24:55.460Z,89.34
2023-02-08T07:27:25.042Z,90.38
2023-02-08T07:29:53.597Z,90.62
2023-02-08T07:32:22.546Z,90.61
2023-02-08T07:34:50.110Z,96.38
2023-02-08T07:37:17.738Z,95.53
2023-02-08T07:39:45.238Z,92.75
2023-02-08T07:42:12.804Z,90.33
2023-02-08T07:44:53.202Z,90.24
2023-02-08T07:47:22.164Z,89.27
2023-02-08T07:49:49.759Z,89.79
2023-02-08T07:52:17.387Z,89.88
2023-02-08T07:54:44.944Z,90.43
2023-02-08T07:57:12.482Z,95.31
2023-02-08T07:59:40.093Z,94.97
2023-02-08T08:02:07.705Z,92.22
2023-02-08T08:04:36.678Z,89.81
2023-02-08T08:07:04.259Z,88.94
2023-02-08T08:09:31.952Z,88.15
2023-02-08T08:11:59.449Z,87.92
2023-02-08T08:14:26.974Z,88.33
2023-02-08T08:16:54.529Z,88.79
2023-02-08T08:19:22.139Z,88.10
2023-02-08T08:21:51.037Z,88.59
2023-02-08T08:24:18.687Z,87.07
2023-02-08T08:26:46.202Z,86.54
2023-02-08T08:29:14.236Z,80.95
2023-02-08T08:31:43.854Z,77.77
2023-02-08T08:34:11.485Z,74.85
2023-02-08T08:36:39.026Z,72.64
2023-02-08T08:39:08.039Z,69.77
2023-02-08T08:41:36.932Z,67.85
2023-02-08T08:44:04.695Z,67.86
2023-02-08T08:46:32.272Z,66.00
2023-02-08T08:48:59.968Z,65.54
2023-02-08T08:51:27.627Z,63.84
2023-02-08T08:53:55.285Z,62.63
2023-02-08T08:56:24.174Z,63.59
2023-02-08T08:58:51.685Z,64.11
2023-02-08T09:01:19.651Z,63.51
2023-02-08T09:03:47.487Z,61.96
2023-02-08T09:06:15.147Z,62.73
2023-02-08T09:08:43.013Z,62.78
2023-02-08T09:11:13.872Z,61.33
2023-02-08T09:13:43.491Z,58.82
2023-02-08T09:16:14.309Z,58.00
2023-02-08T09:18:42.448Z,58.71
2023-02-08T09:21:11.481Z,57.37
2023-02-08T09:23:39.416Z,56.39
2023-02-08T09:26:08.574Z,57.50
2023-02-08T09:28:36.211Z,56.26
2023-02-08T09:31:10.696Z,54.75
2023-02-08T09:33:38.464Z,54.64
2023-02-08T09:36:06.673Z,53.24
2023-02-08T09:38:34.864Z,53.97
2023-02-08T09:41:17.061Z,53.09
2023-02-08T09:43:53.973Z,52.80
2023-02-08T09:46:25.260Z,51.43
2023-02-08T09:48:56.291Z,50.04
2023-02-08T09:51:33.409Z,50.41
2023-02-08T09:54:06.872Z,49.70
2023-02-08T09:56:40.151Z,48.07
2023-02-08T09:59:14.432Z,48.71
2023-02-08T10:01:43.944Z,49.41
2023-02-08T10:04:19.405Z,47.67
2023-02-08T10:06:49.883Z,47.29
2023-02-08T10:09:21.860Z,44.63
2023-02-08T10:12:00.111Z,46.59
2023-02-08T10:14:48.274Z,45.58
2023-02-08T10:17:37.223Z,47.49
2023-02-08T10:20:14.247Z,44.97
2023-02-08T10:22:49.452Z,44.68
2023-02-08T10:25:31.864Z,43.86
2023-02-08T10:28:19.607Z,45.55
2023-02-08T10:30:57.065Z,45.20
2023-02-08T10:33:30.769Z,44.88
2023-02-08T10:35:58.540Z,43.37
2023-02-08T10:38:44.113Z,62.83
2023-02-08T10:41:19.367Z,43.82
2023-02-08T10:43:49.783Z,56.56
2023-02-08T10:46:25.344Z,46.20
2023-02-08T10:49:08.055Z,42.64
2023-02-08T10:51:35.676Z,42.80
2023-02-08T10:54:03.536Z,42.36
2023-02-08T10:56:46.332Z,43.63
2023-02-08T10:59:21.339Z,39.81
2023-02-08T11:01:50.510Z,39.42
2023-02-08T11:04:19.727Z,39.08
2023-02-08T11:06:48.954Z,38.68
2023-02-08T11:09:29.076Z,39.66
2023-02-08T11:11:58.422Z,38.74
2023-02-08T11:14:45.324Z,38.94
2023-02-08T11:17:28.425Z,38.92
2023-02-08T11:19:59.437Z,39.50
2023-02-08T11:22:31.077Z,38.57
2023-02-08T11:25:01.288Z,38.31
2023-02-08T11:27:34.645Z,37.79
2023-02-08T11:30:19.538Z,36.69
2023-02-08T11:32:48.752Z,36.92
2023-02-08T11:35:23.945Z,36.47
2023-02-08T11:37:53.621Z,36.79
2023-02-08T11:40:24.045Z,36.18
2023-02-08T11:42:52.828Z,35.79
2023-02-08T11:45:24.006Z,36.00
2023-02-08T11:47:52.847Z,34.33
2023-02-08T11:50:27.148Z,34.24
2023-02-08T11:52:59.164Z,34.89
2023-02-08T11:55:29.255Z,34.30
2023-02-08T11:58:01.218Z,32.92
2023-02-08T12:00:30.908Z,33.93
2023-02-08T12:03:01.223Z,33.65
2023-02-08T12:05:41.379Z,32.77
2023-02-08T12:08:17.675Z,31.12
2023-02-08T12:11:13.221Z,30.89
2023-02-08T12:13:59.488Z,32.46
2023-02-08T12:16:49.470Z,32.16
2023-02-08T12:19:53.669Z,34.76
2023-02-08T12:22:25.264Z,35.74
2023-02-08T12:25:04.579Z,30.58
2023-02-08T12:27:43.226Z,29.69
2023-02-08T12:30:22.731Z,29.76
2023-02-08T12:33:17.276Z,30.21
2023-02-08T12:36:04.498Z,30.51
2023-02-08T12:39:29.006Z,30.27
2023-02-08T12:42:13.637Z,30.42
2023-02-08T12:44:55.654Z,30.55
2023-02-08T12:47:38.725Z,29.91
2023-02-08T12:50:19.753Z,30.55
2023-02-08T12:52:51.120Z,30.07
2023-02-08T12:55:25.673Z,30.46
2023-02-08T12:57:56.430Z,30.62
2023-02-08T13:00:27.578Z,30.82
2023-02-08T13:03:04.798Z,30.04
2023-02-08T13:05:36.314Z,30.57
2023-02-08T13:08:09.944Z,30.02
2023-02-08T13:10:41.370Z,30.75
2023-02-08T13:13:17.010Z,29.92
2023-02-08T13:15:47.848Z,30.73
2023-02-08T13:18:20.003Z,30.40
2023-02-08T13:20:50.623Z,30.16
2023-02-08T13:23:24.148Z,30.67
2023-02-08T13:25:56.839Z,31.05
2023-02-08T13:28:26.758Z,30.85
2023-02-08T13:30:59.289Z,30.47
2023-02-08T13:33:34.547Z,30.17
2023-02-08T13:36:02.587Z,29.25
2023-02-08T13:38:33.395Z,30.01
2023-02-08T13:41:16.073Z,29.65
2023-02-08T13:43:48.038Z,28.65
2023-02-08T13:46:17.823Z,28.09
2023-02-08T13:48:51.149Z,28.36
2023-02-08T13:52:02.213Z,27.93
2023-02-08T13:54:30.406Z,27.70
2023-02-08T13:56:59.405Z,27.39
2023-02-08T13:59:37.883Z,26.61
2023-02-08T14:02:29.899Z,26.51
2023-02-08T14:05:36.414Z,26.68
2023-02-08T14:08:07.232Z,27.83
2023-02-08T14:10:40.305Z,27.98
2023-02-08T14:13:24.689Z,27.00
2023-02-08T14:16:25.086Z,27.51
2023-02-08T14:18:54.247Z,27.62
2023-02-08T14:21:31.894Z,27.30
2023-02-08T14:24:02.658Z,27.36
2023-02-08T14:26:31.366Z,26.91
2023-02-08T14:29:02.419Z,27.38
2023-02-08T14:31:38.639Z,27.64
2023-02-08T14:34:07.405Z,26.94
2023-02-08T14:36:36.844Z,27.58
2023-02-08T14:39:22.576Z,27.30
2023-02-08T14:42:15.445Z,27.10
2023-02-08T14:44:58.102Z,27.67
2023-02-08T14:48:02.659Z,27.49
2023-02-08T14:50:33.377Z,28.13
2023-02-08T14:53:08.231Z,28.35
2023-02-08T14:55:42.816Z,27.23
2023-02-08T14:58:15.787Z,27.16
2023-02-08T15:00:46.790Z,26.59
2023-02-08T15:03:17.191Z,27.58
2023-02-08T15:05:56.376Z,28.17
2023-02-08T15:08:23.984Z,28.21
2023-02-08T15:10:51.584Z,28.36
2023-02-08T15:13:24.256Z,28.34
2023-02-08T15:15:56.527Z,29.57
2023-02-08T15:18:28.209Z,31.03
2023-02-08T15:21:03.069Z,32.07
2023-02-08T15:23:31.612Z,32.65
2023-02-08T15:26:02.494Z,32.90
2023-02-08T15:28:32.425Z,34.08
2023-02-08T15:31:05.032Z,34.07
2023-02-08T15:33:33.721Z,34.66
2023-02-08T15:36:06.160Z,34.79
2023-02-08T15:38:37.162Z,34.94
2023-02-08T15:41:07.515Z,36.34
2023-02-08T15:43:36.430Z,36.84
2023-02-08T15:46:07.465Z,37.71
2023-02-08T15:48:39.511Z,37.45
2023-02-08T15:51:08.179Z,38.52
2023-02-08T15:53:36.767Z,39.55
2023-02-08T15:56:07.288Z,40.18
2023-02-08T15:58:40.142Z,41.46
2023-02-08T16:01:09.929Z,41.58
2023-02-08T16:03:38.639Z,42.10
2023-02-08T16:06:08.258Z,41.92
2023-02-08T16:08:41.021Z,42.31
2023-02-08T16:11:13.424Z,42.85
2023-02-08T16:13:46.916Z,43.24
2023-02-08T16:16:21.156Z,43.32
2023-02-08T16:18:50.932Z,43.49
2023-02-08T16:21:32.716Z,44.85
2023-02-08T16:24:02.064Z,44.31
2023-02-08T16:26:35.065Z,45.22
2023-02-08T16:29:05.280Z,45.51
2023-02-08T16:31:36.223Z,45.00
2023-02-08T16:34:06.612Z,46.41
2023-02-08T16:36:37.800Z,46.52
2023-02-08T16:39:39.109Z,47.48
2023-02-08T16:42:16.340Z,47.37
2023-02-08T16:45:19.526Z,48.35
2023-02-08T16:47:51.420Z,50.65
2023-02-08T16:50:21.230Z,50.46
2023-02-08T16:52:51.461Z,51.33
2023-02-08T16:55:22.594Z,52.45
2023-02-08T16:57:52.452Z,53.86
2023-02-08T17:00:24.381Z,54.95
2023-02-08T17:02:53.985Z,55.50
2023-02-08T17:05:23.946Z,56.04
2023-02-08T17:07:51.945Z,56.17
2023-02-08T17:10:28.656Z,55.60
2023-02-08T17:13:09.792Z,55.63
2023-02-08T17:15:41.263Z,55.80
2023-02-08T17:18:12.649Z,58.85
2023-02-08T17:20:41.147Z,60.63
2023-02-08T17:23:10.669Z,59.98
2023-02-08T17:25:38.594Z,61.31
2023-02-08T17:28:08.664Z,57.36
2023-02-08T17:30:38.967Z,59.66
2023-02-08T17:33:07.516Z,59.10
2023-02-08T17:35:38.242Z,58.89
2023-02-08T17:38:06.980Z,59.03
2023-02-08T17:40:37.228Z,57.37
2023-02-08T17:43:06.079Z,58.57
2023-02-08T17:45:38.934Z,60.82
2023-02-08T17:48:07.997Z,61.32
2023-02-08T17:50:42.993Z,62.34
2023-02-08T17:53:12.502Z,61.42
2023-02-08T17:55:42.503Z,61.27
2023-02-08T17:58:10.334Z,57.69
2023-02-08T18:00:38.326Z,60.27
2023-02-08T18:03:06.016Z,62.01
2023-02-08T18:05:33.656Z,62.55
2023-02-08T18:08:02.516Z,62.98
2023-02-08T18:10:30.132Z,63.58
2023-02-08T18:12:57.760Z,62.94
2023-02-08T18:15:25.313Z,63.66
2023-02-08T18:17:52.861Z,63.51
2023-02-08T18:20:20.468Z,65.18
2023-02-08T18:22:48.131Z,64.43
2023-02-08T18:25:17.639Z,63.74
2023-02-08T18:27:45.251Z,63.11
2023-02-08T18:30:14.082Z,61.29
2023-02-08T18:32:41.642Z,59.86
2023-02-08T18:35:09.702Z,60.99
2023-02-08T18:37:38.380Z,60.81
2023-02-08T18:40:09.137Z,59.50
2023-02-08T18:42:38.028Z,58.72
2023-02-08T18:45:06.437Z,59.17
2023-02-08T18:47:35.904Z,59.48
2023-02-08T18:50:03.714Z,61.13
2023-02-08T18:52:31.864Z,62.72
2023-02-08T18:54:59.468Z,60.77
2023-02-08T18:57:27.097Z,62.27
2023-02-08T18:59:56.362Z,64.50
2023-02-08T19:02:24.265Z,64.81
2023-02-08T19:04:51.851Z,65.76
2023-02-08T19:07:19.498Z,64.49
2023-02-08T19:09:47.331Z,64.02
2023-02-08T19:12:15.865Z,66.24
2023-02-08T19:14:44.117Z,66.51
2023-02-08T19:17:14.869Z,67.50
2023-02-08T19:19:42.693Z,66.96
2023-02-08T19:22:10.303Z,67.75
2023-02-08T19:24:37.902Z,68.17
2023-02-08T19:27:05.811Z,68.83
2023-02-08T19:29:34.533Z,68.92
2023-02-08T19:32:02.173Z,69.02
2023-02-08T19:34:31.192Z,69.67
2023-02-08T19:36:58.758Z,68.66
2023-02-08T19:39:27.961Z,69.67
2023-02-08T19:41:58.480Z,73.61
2023-02-08T19:44:29.040Z,73.46
2023-02-08T19:46:57.849Z,71.60
2023-02-08T19:49:27.182Z,69.80
2023-02-08T19:51:56.676Z,68.51
2023-02-08T19:54:24.224Z,67.51
2023-02-08T19:56:54.446Z,67.55
2023-02-08T19:59:24.129Z,66.95
2023-02-08T20:01:51.811Z,66.20
2023-02-08T20:04:19.579Z,67.28
2023-02-08T20:06:47.664Z,67.14
2023-02-08T20:09:17.556Z,67.95
2023-02-08T20:11:56.921Z,69.21
2023-02-08T20:14:25.612Z,68.77
2023-02-08T20:16:53.348Z,68.47
2023-02-08T20:19:21.008Z,70.03
2023-02-08T20:21:48.601Z,70.81
2023-02-08T20:24:17.549Z,70.88
2023-02-08T20:26:46.619Z,71.74
2023-02-08T20:29:15.536Z,69.91
2023-02-08T20:31:46.519Z,69.59
2023-02-08T20:34:16.848Z,69.75
2023-02-08T20:37:04.503Z,69.96
2023-02-08T20:39:36.449Z,71.74
2023-02-08T20:42:04.488Z,72.65
2023-02-08T20:44:32.410Z,74.38
2023-02-08T20:47:00.612Z,73.87
2023-02-08T20:49:29.307Z,71.95
2023-02-08T20:51:57.332Z,72.39
2023-02-08T20:54:25.523Z,73.17
2023-02-08T20:56:55.029Z,73.35
2023-02-08T20:59:22.952Z,73.21
2023-02-08T21:01:51.131Z,74.55
2023-02-08T21:04:20.213Z,75.61
2023-02-08T21:06:47.930Z,75.15
2023-02-08T21:09:18.314Z,76.97
2023-02-08T21:11:47.113Z,77.96
2023-02-08T21:14:18.842Z,76.95
2023-02-08T21:16:47.725Z,77.11
2023-02-08T21:19:15.903Z,80.55
2023-02-08T21:21:43.919Z,80.29
2023-02-08T21:24:11.898Z,77.39
2023-02-08T21:26:39.716Z,77.31
2023-02-08T21:29:07.895Z,77.12
2023-02-08T21:31:37.510Z,78.64
2023-02-08T21:34:10.889Z,77.94
2023-02-08T21:36:38.493Z,78.30
2023-02-08T21:39:06.068Z,78.10
2023-02-08T21:41:34.567Z,77.21
2023-02-08T21:44:04.333Z,77.64
2023-02-08T21:46:33.513Z,78.68
2023-02-08T21:49:19.896Z,80.58
2023-02-08T21:52:05.854Z,78.58
2023-02-08T21:54:52.956Z,77.44
2023-02-08T21:57:22.437Z,76.81
2023-02-08T21:59:52.029Z,76.18
2023-02-08T22:02:23.280Z,74.52
2023-02-08T22:04:53.038Z,74.25
2023-02-08T22:07:21.152Z,72.67
2023-02-08T22:09:48.918Z,73.98
2023-02-08T22:12:18.839Z,72.85
2023-02-08T22:14:46.453Z,72.32
2023-02-08T22:17:14.812Z,72.66
2023-02-08T22:19:43.479Z,71.51
2023-02-08T22:22:12.915Z,71.95
2023-02-08T22:24:40.803Z,71.99
2023-02-08T22:27:08.799Z,70.67
2023-02-08T22:29:36.751Z,70.20
2023-02-08T22:32:05.453Z,70.76
2023-02-08T22:34:33.212Z,69.54
2023-02-08T22:37:03.567Z,70.16
2023-02-08T22:39:34.072Z,69.78
2023-02-08T22:42:01.767Z,69.88
2023-02-08T22:44:29.371Z,70.42
2023-02-08T22:46:57.434Z,70.21
2023-02-08T22:49:25.017Z,69.52
2023-02-08T22:51:52.590Z,69.82
2023-02-08T22:54:20.452Z,70.10
2023-02-08T22:56:49.328Z,69.60
2023-02-08T22:59:17.416Z,70.48
2023-02-08T23:01:48.512Z,69.71
2023-02-08T23:04:16.390Z,70.70
2023-02-08T23:06:44.115Z,69.62
2023-02-08T23:09:13.021Z,69.57
2023-02-08T23:11:40.952Z,71.01
2023-02-08T23:14:10.056Z,70.23
2023-02-08T23:16:37.838Z,70.68
2023-02-08T23:19:06.012Z,72.25
2023-02-08T23:21:33.959Z,72.67
2023-02-08T23:24:01.643Z,73.31
2023-02-08T23:26:29.296Z,73.19
2023-02-08T23:28:57.085Z,72.86
2023-02-08T23:31:26.341Z,71.97
2023-02-08T23:33:54.132Z,73.05
2023-02-08T23:36:23.832Z,73.08
2023-02-08T23:38:51.732Z,73.01
2023-02-08T23:41:21.639Z,73.07
2023-02-08T23:43:51.505Z,72.32
2023-02-08T23:46:21.550Z,72.03
2023-02-08T23:48:51.169Z,72.42
2023-02-08T23:51:20.637Z,72.42
2023-02-08T23:53:49.249Z,72.10
2023-02-08T23:56:22.209Z,71.47
2023-02-08T23:58:52.197Z,71.34
